Time;durP1;ratioP1;P1;durP2;ratioP2;P2;SDS_P1;SDS_P2;PMS_P1;PMS_P2;Temp;Humidity;BMP_temperature;BMP_pressure;BME280_temperature;BME280_humidity;BME280_pressure;Samples;Min_cycle;Max_cycle;Signal;HPM_P1;HPM_P2
2023/06/27 00:00:21;;;;;;;;;;;;;;;23.20;42.18;101942.84;4132544;28;19926;-72
2023/06/27 00:02:22;;;;;;;;;;;;;;;23.19;42.02;101942.94;4131584;28;19926;-72
2023/06/27 00:04:24;;;;;;;;;;;;;;;23.19;42.04;101943.78;4131227;28;19926;-71
2023/06/27 00:06:26;;;;;;;;;;;;;;;23.19;42.07;101951.84;4132499;28;20413;-72
2023/06/27 00:08:28;;;;;;;;;;;;;;;23.19;42.11;101948.31;4132632;28;19968;-71
2023/06/27 00:10:29;;;;;;;;;;;;;;;23.18;42.03;101943.91;4132027;28;20022;-71
2023/06/27 00:12:31;;;;;;;;;;;;;;;23.17;42.37;101947.56;4131158;28;19930;-71
2023/06/27 00:14:33;;;;;;;;;;;;;;;23.17;42.01;101944.88;4132378;28;20429;-71
2023/06/27 00:16:35;;;;;;;;;;;;;;;23.15;42.12;101936.91;4132442;28;19933;-72
2023/06/27 00:18:36;;;;;;;;;;;;;;;23.14;42.44;101944.06;4132534;28;19972;-72
2023/06/27 00:20:38;;;;;;;;;;;;;;;23.15;42.42;101958.38;4132330;28;19932;-72
2023/06/27 00:22:40;;;;;;;;;;;;;;;23.14;42.07;101951.28;4131299;28;19937;-71
2023/06/27 00:24:42;;;;;;;;;;;;;;;23.12;41.98;101948.72;4131939;28;20071;-71
2023/06/27 00:26:44;;;;;;;;;;;;;;;23.12;42.51;101954.09;4132033;28;20008;-71
2023/06/27 00:28:45;;;;;;;;;;;;;;;23.12;42.17;101953.22;4131883;28;19956;-71
2023/06/27 00:30:47;;;;;;;;;;;;;;;23.11;42.15;101951.47;4132155;28;20364;-71
2023/06/27 00:32:48;;;;;;;;;;;;;;;23.11;42.35;101951.47;4129693;28;19926;-71
2023/06/27 00:34:50;;;;;;;;;;;;;;;23.10;42.16;101950.63;4130713;28;19926;-72
2023/06/27 00:36:52;;;;;;;;;;;;;;;23.10;42.47;101949.78;4132035;28;20362;-71
2023/06/27 00:38:53;;;;;;;;;;;;;;;23.08;42.25;101955.25;4131671;28;19961;-71
2023/06/27 00:40:55;;;;;;;;;;;;;;;23.09;42.11;101945.38;4130669;28;19929;-71
2023/06/27 00:42:56;;;;;;;;;;;;;;;23.07;42.30;101939.25;4131054;28;19925;-71
2023/06/27 00:44:58;;;;;;;;;;;;;;;23.07;42.18;101945.47;4132084;28;19926;-71
2023/06/27 00:47:00;;;;;;;;;;;;;;;23.08;42.36;101946.34;4131745;28;19926;-71
2023/06/27 00:49:02;;;;;;;;;;;;;;;23.06;42.08;101951.81;4130467;28;19926;-71
2023/06/27 00:51:04;;;;;;;;;;;;;;;23.06;42.11;101949.16;4131655;28;19933;-73
2023/06/27 00:53:05;;;;;;;;;;;;;;;23.07;42.42;101960.72;4129596;28;20016;-71
2023/06/27 00:55:08;;;;;;;;;;;;;;;23.06;42.14;101953.63;4131545;28;20443;-70
2023/06/27 00:57:10;;;;;;;;;;;;;;;23.04;42.02;101952.88;4131823;28;20450;-71
2023/06/27 00:59:12;;;;;;;;;;;;;;;23.04;42.22;101947.50;4131816;28;19925;-71
2023/06/27 01:01:13;;;;;;;;;;;;;;;23.03;42.29;101945.81;4131748;28;19948;-71
2023/06/27 01:03:15;;;;;;;;;;;;;;;23.03;42.19;101948.50;4130689;28;19957;-71
2023/06/27 01:05:18;;;;;;;;;;;;;;;23.02;42.23;101950.31;4131867;28;19929;-72
2023/06/27 01:07:23;;;;;;;;;;;;;;;23.02;42.26;101954.81;4130565;28;19930;-70
2023/06/27 01:09:34;;;;;;;;;;;;;;;23.02;42.29;101944.09;4131284;28;20355;-72
2023/06/27 01:11:41;;;;;;;;;;;;;;;23.01;42.16;101943.22;4130081;28;20369;-72
2023/06/27 01:13:55;;;;;;;;;;;;;;;23.01;42.04;101945.06;4131493;28;19976;-71
2023/06/27 01:15:58;;;;;;;;;;;;;;;23.00;42.41;101946.84;4131750;28;20364;-72
2023/06/27 01:17:59;;;;;;;;;;;;;;;23.00;42.28;101943.31;4131235;28;20020;-72
2023/06/27 01:20:02;;;;;;;;;;;;;;;22.99;42.42;101947.84;4131467;28;20002;-72
2023/06/27 01:22:06;;;;;;;;;;;;;;;23.00;42.23;101943.31;4130672;28;19930;-71
2023/06/27 01:24:08;;;;;;;;;;;;;;;22.98;42.47;101946.97;4131052;28;19925;-72
2023/06/27 01:26:10;;;;;;;;;;;;;;;22.98;42.12;101943.44;4131424;28;19929;-71
2023/06/27 01:28:14;;;;;;;;;;;;;;;22.98;42.23;101940.75;4131591;28;20384;-72
2023/06/27 01:30:17;;;;;;;;;;;;;;;22.97;42.27;101941.72;4131569;28;20300;-72
2023/06/27 01:32:25;;;;;;;;;;;;;;;22.97;42.35;101939.03;4130271;28;20906;-72
2023/06/27 01:34:33;;;;;;;;;;;;;;;22.95;42.45;101931.09;4130015;28;20382;-71
2023/06/27 01:36:44;;;;;;;;;;;;;;;22.94;42.19;101921.34;4131321;28;19926;-72
2023/06/27 01:39:08;;;;;;;;;;;;;;;22.95;42.56;101932.91;4133184;28;19925;-72
2023/06/27 01:41:12;;;;;;;;;;;;;;;22.94;42.29;101934.75;4136811;28;20012;-72
2023/06/27 01:43:14;;;;;;;;;;;;;;;22.94;42.46;101928.50;4135887;28;19930;-72
2023/06/27 01:45:17;;;;;;;;;;;;;;;22.94;42.27;101933.88;4136855;28;19926;-72
2023/06/27 01:47:21;;;;;;;;;;;;;;;22.93;42.19;101933.03;4136800;28;19926;-71
2023/06/27 01:49:23;;;;;;;;;;;;;;;22.93;42.44;101934.81;4136556;28;19925;-72
2023/06/27 01:51:24;;;;;;;;;;;;;;;22.93;42.33;101934.81;4134932;28;19968;-72
2023/06/27 01:53:26;;;;;;;;;;;;;;;22.92;42.24;101927.78;4134489;28;19926;-71
2023/06/27 01:55:29;;;;;;;;;;;;;;;22.92;42.37;101928.63;4135485;28;19984;-71
2023/06/27 01:57:31;;;;;;;;;;;;;;;22.91;42.20;101934.09;4136609;28;20330;-72
2023/06/27 01:59:32;;;;;;;;;;;;;;;22.91;42.22;101928.72;4136739;28;20009;-71
2023/06/27 02:01:34;;;;;;;;;;;;;;;22.90;42.26;101935.91;4136533;28;19934;-71
2023/06/27 02:03:36;;;;;;;;;;;;;;;22.90;42.34;101930.53;4134459;28;20529;-72
2023/06/27 02:05:37;;;;;;;;;;;;;;;22.90;42.22;101935.91;4135668;28;20009;-72
2023/06/27 02:07:39;;;;;;;;;;;;;;;22.89;42.26;101936.00;4136396;28;19925;-72
2023/06/27 02:09:41;;;;;;;;;;;;;;;22.88;42.39;101924.44;4136597;28;19933;-72
2023/06/27 02:11:42;;;;;;;;;;;;;;;22.88;42.39;101934.28;4136330;28;19937;-72
2023/06/27 02:13:44;;;;;;;;;;;;;;;22.88;42.23;101926.25;4135545;28;19930;-72
2023/06/27 02:15:46;;;;;;;;;;;;;;;22.88;42.26;101928.94;4136476;28;19930;-72
2023/06/27 02:17:47;;;;;;;;;;;;;;;22.87;42.36;101933.44;4136677;28;20299;-71
2023/06/27 02:19:49;;;;;;;;;;;;;;;22.87;42.34;101936.13;4136272;28;19926;-71
2023/06/27 02:21:50;;;;;;;;;;;;;;;22.87;42.16;101933.44;4135645;28;19981;-72
2023/06/27 02:23:52;;;;;;;;;;;;;;;22.86;42.60;101936.25;4136264;28;19926;-71
2023/06/27 02:25:55;;;;;;;;;;;;;;;22.75;42.41;101915.50;4136255;28;19934;-72
2023/06/27 02:27:57;;;;;;;;;;;;;;;22.86;42.23;101933.56;4136341;28;19926;-71
2023/06/27 02:29:58;;;;;;;;;;;;;;;22.85;42.59;101945.25;4136336;28;20387;-71
2023/06/27 02:32:00;;;;;;;;;;;;;;;22.85;42.24;101937.19;4135434;28;19926;-71
2023/06/27 02:34:01;;;;;;;;;;;;;;;22.83;42.28;101936.44;4136112;28;19936;-71
2023/06/27 02:36:03;;;;;;;;;;;;;;;22.83;42.36;101939.97;4135833;28;20389;-70
2023/06/27 02:38:05;;;;;;;;;;;;;;;22.83;42.25;101944.50;4136264;28;20354;-71
2023/06/27 02:40:06;;;;;;;;;;;;;;;22.81;42.46;101936.56;4136301;28;19926;-71
2023/06/27 02:42:08;;;;;;;;;;;;;;;22.82;42.31;101930.22;4135322;28;20033;-71
2023/06/27 02:44:09;;;;;;;;;;;;;;;22.81;42.49;101934.72;4136249;28;19926;-71
2023/06/27 02:46:11;;;;;;;;;;;;;;;22.80;42.45;101946.41;4135949;28;20009;-71
2023/06/27 02:48:13;;;;;;;;;;;;;;;22.80;42.62;101935.69;4136190;28;19929;-71
2023/06/27 02:50:15;;;;;;;;;;;;;;;22.80;42.23;101946.41;4134268;28;20016;-71
2023/06/27 02:52:16;;;;;;;;;;;;;;;22.79;42.39;101950.03;4131765;28;20173;-71
2023/06/27 02:54:18;;;;;;;;;;;;;;;22.79;42.33;101955.41;4133540;28;19926;-71
2023/06/27 02:56:19;;;;;;;;;;;;;;;22.78;42.44;101948.34;4133607;28;19961;-71
2023/06/27 02:58:21;;;;;;;;;;;;;;;22.77;42.52;101940.38;4133609;28;19925;-71
2023/06/27 03:00:22;;;;;;;;;;;;;;;22.77;42.47;101943.94;4133516;28;20020;-71
2023/06/27 03:02:24;;;;;;;;;;;;;;;22.77;42.69;101948.44;4132562;28;19934;-71
2023/06/27 03:04:25;;;;;;;;;;;;;;;22.77;42.25;101943.06;4133016;28;19926;-71
2023/06/27 03:06:28;;;;;;;;;;;;;;;22.77;42.52;101943.06;4133578;28;20352;-71
2023/06/27 03:08:30;;;;;;;;;;;;;;;22.76;42.26;101944.03;4133180;28;19926;-72
2023/06/27 03:10:32;;;;;;;;;;;;;;;22.75;42.46;101937.81;4133458;28;20423;-71
2023/06/27 03:12:34;;;;;;;;;;;;;;;22.74;42.58;101938.78;4132419;28;20426;-71
2023/06/27 03:14:35;;;;;;;;;;;;;;;22.73;42.54;101937.06;4133314;28;20439;-71
2023/06/27 03:16:37;;;;;;;;;;;;;;;22.73;42.69;101937.06;4133151;28;20008;-72
2023/06/27 03:18:39;;;;;;;;;;;;;;;22.73;42.40;101929.00;4133068;28;20359;-71
2023/06/27 03:20:40;;;;;;;;;;;;;;;22.73;42.38;101934.38;4133238;28;20012;-72
2023/06/27 03:22:43;;;;;;;;;;;;;;;22.72;42.63;101932.66;4132064;28;19965;-72
2023/06/27 03:24:45;;;;;;;;;;;;;;;22.71;42.44;101928.28;4133194;28;19976;-71
2023/06/27 03:26:46;;;;;;;;;;;;;;;22.71;42.51;101938.13;4133258;28;20013;-71
2023/06/27 03:28:48;;;;;;;;;;;;;;;22.71;42.66;101936.31;4133101;28;19929;-71
2023/06/27 03:30:49;;;;;;;;;;;;;;;22.70;42.35;101931.91;4133030;28;19926;-71
2023/06/27 03:32:56;;;;;;;;;;;;;;;22.70;42.60;101936.41;4131869;28;19933;-71
2023/06/27 03:35:02;;;;;;;;;;;;;;;22.70;42.57;101926.56;4133036;28;19926;-71
2023/06/27 03:37:04;;;;;;;;;;;;;;;22.69;42.69;101919.47;4132965;28;19926;-72
2023/06/27 03:39:06;;;;;;;;;;;;;;;22.68;42.52;101923.09;4132735;28;19929;-72
2023/06/27 03:41:07;;;;;;;;;;;;;;;22.68;42.38;101927.63;4132804;28;19965;-72
2023/06/27 03:43:12;;;;;;;;;;;;;;;22.68;42.78;101924.94;4131862;28;19926;-72
2023/06/27 03:45:14;;;;;;;;;;;;;;;22.68;42.51;101922.25;4133005;28;19961;-72
2023/06/27 03:47:16;;;;;;;;;;;;;;;22.58;42.37;101898.75;4132316;28;20387;-72
2023/06/27 03:49:18;;;;;;;;;;;;;;;22.65;42.44;101916.13;4132663;28;19926;-71
2023/06/27 03:51:20;;;;;;;;;;;;;;;22.66;42.50;101922.34;4132478;28;19942;-71
2023/06/27 03:53:21;;;;;;;;;;;;;;;22.67;42.38;101931.25;4131841;28;19980;-71
2023/06/27 03:55:23;;;;;;;;;;;;;;;22.65;42.64;101924.19;4132670;28;20351;-71
2023/06/27 03:57:24;;;;;;;;;;;;;;;22.66;42.57;101922.34;4132623;28;19925;-71
2023/06/27 03:59:26;;;;;;;;;;;;;;;22.65;42.46;101920.66;4132484;28;20062;-72
2023/06/27 04:01:30;;;;;;;;;;;;;;;22.65;42.78;101923.34;4132672;28;19925;-71
2023/06/27 04:03:32;;;;;;;;;;;;;;;22.64;42.42;101922.47;4130423;28;20387;-71
2023/06/27 04:05:33;;;;;;;;;;;;;;;22.63;42.57;101923.41;4132737;28;20140;-71
2023/06/27 04:07:35;;;;;;;;;;;;;;;22.65;42.83;101923.34;4132689;28;20290;-71
2023/06/27 04:09:37;;;;;;;;;;;;;;;22.63;42.63;101926.09;4132608;28;20299;-72
2023/06/27 04:11:39;;;;;;;;;;;;;;;22.63;42.63;101930.63;4132444;28;20449;-71
2023/06/27 04:13:41;;;;;;;;;;;;;;;22.63;42.66;101927.94;4131724;28;20291;-71
2023/06/27 04:15:42;;;;;;;;;;;;;;;22.62;42.43;101935.09;4132630;28;19968;-71
2023/06/27 04:17:45;;;;;;;;;;;;;;;22.62;42.79;101934.25;4132280;28;19926;-71
2023/06/27 04:19:47;;;;;;;;;;;;;;;22.62;42.87;101931.56;4131309;28;19926;-71
2023/06/27 04:21:48;;;;;;;;;;;;;;;22.61;42.92;101927.16;4131989;28;19926;-71
2023/06/27 04:23:51;;;;;;;;;;;;;;;22.62;42.55;101939.63;4131372;28;19932;-72
2023/06/27 04:25:59;;;;;;;;;;;;;;;22.61;42.81;101932.53;4132403;28;19926;-71
2023/06/27 04:28:01;;;;;;;;;;;;;;;22.60;42.54;101934.38;4132148;28;19949;-72
2023/06/27 04:30:03;;;;;;;;;;;;;;;22.60;42.50;101938.84;4132269;28;19926;-72
2023/06/27 04:32:05;;;;;;;;;;;;;;;22.59;42.88;101929.09;4131857;28;19929;-71
2023/06/27 04:34:08;;;;;;;;;;;;;;;22.59;42.47;101929.97;4131187;28;19925;-71
2023/06/27 04:36:10;;;;;;;;;;;;;;;22.59;42.55;101935.31;4132198;28;20119;-71
2023/06/27 04:38:14;;;;;;;;;;;;;;;22.59;42.57;101940.69;4132272;28;19929;-71
2023/06/27 04:40:16;;;;;;;;;;;;;;;22.59;42.91;101934.44;4131983;28;20431;-72
2023/06/27 04:42:18;;;;;;;;;;;;;;;22.59;42.95;101927.28;4131439;28;19933;-71
2023/06/27 04:44:21;;;;;;;;;;;;;;;22.58;42.51;101930.91;4131553;28;19925;-71
2023/06/27 04:46:23;;;;;;;;;;;;;;;22.59;42.82;101926.41;4131333;28;19980;-72
2023/06/27 04:48:24;;;;;;;;;;;;;;;22.58;42.83;101924.72;4131899;28;20016;-71
2023/06/27 04:50:26;;;;;;;;;;;;;;;22.57;42.92;101921.16;4131709;28;19984;-71
2023/06/27 04:52:27;;;;;;;;;;;;;;;22.58;42.50;101914.84;4130867;28;19926;-71
2023/06/27 04:54:29;;;;;;;;;;;;;;;22.58;42.85;101916.66;4131683;28;19925;-71
2023/06/27 04:56:30;;;;;;;;;;;;;;;22.57;42.60;101915.78;4131853;28;20429;-70
2023/06/27 04:58:32;;;;;;;;;;;;;;;22.57;42.54;101918.47;4131828;28;19930;-71
2023/06/27 05:00:34;;;;;;;;;;;;;;;22.56;42.88;101916.75;4131382;28;19958;-71
2023/06/27 05:02:36;;;;;;;;;;;;;;;22.57;42.94;101920.31;4131019;28;19933;-71
2023/06/27 05:04:49;;;;;;;;;;;;;;;22.58;42.56;101922.03;4131696;28;19926;-71
2023/06/27 05:06:51;;;;;;;;;;;;;;;22.57;42.63;101920.31;4131687;28;19980;-71
2023/06/27 05:08:52;;;;;;;;;;;;;;;22.57;42.89;101923.00;4131639;28;19925;-71
2023/06/27 05:10:54;;;;;;;;;;;;;;;22.57;42.63;101923.81;4131879;28;19926;-71
2023/06/27 05:12:56;;;;;;;;;;;;;;;22.56;42.62;101919.44;4130589;28;19929;-71
2023/06/27 05:14:57;;;;;;;;;;;;;;;22.56;42.55;101927.47;4130863;28;19961;-71
2023/06/27 05:16:59;;;;;;;;;;;;;;;22.56;42.69;101926.63;4131695;28;19926;-71
2023/06/27 05:19:01;;;;;;;;;;;;;;;22.56;42.73;101926.63;4131505;28;19925;-71
2023/06/27 05:21:02;;;;;;;;;;;;;;;22.56;42.45;101931.97;4131358;28;19980;-70
2023/06/27 05:23:05;;;;;;;;;;;;;;;22.56;42.56;101929.31;4130662;28;19926;-71
2023/06/27 05:25:09;;;;;;;;;;;;;;;22.55;42.62;101936.47;4131545;28;20406;-71
2023/06/27 05:27:11;;;;;;;;;;;;;;;22.54;42.62;101936.59;4131549;28;20008;-71
2023/06/27 05:29:12;;;;;;;;;;;;;;;22.55;42.68;101943.66;4129957;28;19926;-71
2023/06/27 05:31:19;;;;;;;;;;;;;;;22.54;42.79;101939.25;4131571;28;20013;-71
2023/06/27 05:33:26;;;;;;;;;;;;;;;22.55;42.78;101943.66;4130347;28;20245;-71
2023/06/27 05:35:28;;;;;;;;;;;;;;;22.53;42.79;101938.41;4131613;28;19961;-71
2023/06/27 05:37:29;;;;;;;;;;;;;;;22.54;42.92;101940.13;4131458;28;19926;-71
2023/06/27 05:39:32;;;;;;;;;;;;;;;22.53;42.94;101949.16;4131300;28;20340;-71
2023/06/27 05:41:34;;;;;;;;;;;;;;;22.53;42.64;101946.47;4131650;28;20402;-71
2023/06/27 05:43:40;;;;;;;;;;;;;;;22.54;43.01;101942.81;4128665;28;20369;-72
2023/06/27 05:45:47;;;;;;;;;;;;;;;22.53;42.81;101941.09;4131030;28;19926;-72
2023/06/27 05:47:48;;;;;;;;;;;;;;;22.54;42.71;101931.22;4131221;28;19926;-71
2023/06/27 05:49:50;;;;;;;;;;;;;;;22.53;42.76;101933.06;4131086;28;19925;-72
2023/06/27 05:51:52;;;;;;;;;;;;;;;22.54;42.95;101926.75;4131042;28;19926;-71
2023/06/27 05:53:53;;;;;;;;;;;;;;;22.54;42.68;101923.19;4130252;28;19932;-71
2023/06/27 05:55:55;;;;;;;;;;;;;;;22.54;42.60;101920.50;4131343;28;20260;-71
2023/06/27 05:57:56;;;;;;;;;;;;;;;22.54;42.69;101924.06;4131039;28;19937;-71
2023/06/27 06:00:03;;;;;;;;;;;;;;;22.54;42.83;101920.50;4131118;28;19966;-71
2023/06/27 06:02:05;;;;;;;;;;;;;;;22.53;42.64;101927.69;4131063;28;19972;-71
2023/06/27 06:04:07;;;;;;;;;;;;;;;22.53;42.88;101927.69;4130223;28;19930;-71
2023/06/27 06:06:11;;;;;;;;;;;;;;;22.54;42.96;101925.84;4131206;28;19925;-71
2023/06/27 06:08:12;;;;;;;;;;;;;;;22.54;42.75;101931.22;4131044;28;20363;-71
2023/06/27 06:10:14;;;;;;;;;;;;;;;22.53;42.74;101930.38;4131190;28;20130;-70
2023/06/27 06:12:15;;;;;;;;;;;;;;;22.54;42.78;101926.75;4130837;28;20013;-71
2023/06/27 06:14:17;;;;;;;;;;;;;;;22.54;42.71;101929.41;4130221;28;20344;-72
2023/06/27 06:16:18;;;;;;;;;;;;;;;22.54;42.96;101925.84;4131032;28;19926;-71
2023/06/27 06:18:20;;;;;;;;;;;;;;;22.54;42.99;101923.19;4131145;28;19926;-72
2023/06/27 06:20:21;;;;;;;;;;;;;;;22.54;42.61;101926.75;4130970;28;19929;-71
2023/06/27 06:22:23;;;;;;;;;;;;;;;22.55;43.05;101932.94;4131162;28;20029;-72
2023/06/27 06:24:24;;;;;;;;;;;;;;;22.55;42.90;101927.59;4130199;28;19932;-71
2023/06/27 06:26:26;;;;;;;;;;;;;;;22.54;42.80;101924.06;4133005;28;19926;-72
2023/06/27 06:28:27;;;;;;;;;;;;;;;22.54;42.97;101931.22;4133713;28;19936;-72
2023/06/27 06:30:29;;;;;;;;;;;;;;;22.53;42.72;101929.50;4132958;28;20419;-72
2023/06/27 06:32:30;;;;;;;;;;;;;;;22.52;43.03;101939.38;4133957;28;19933;-70
2023/06/27 06:34:35;;;;;;;;;;;;;;;22.53;42.82;101935.75;4133207;28;20308;-71
2023/06/27 06:36:37;;;;;;;;;;;;;;;22.53;42.87;101937.53;4134107;28;19977;-71
2023/06/27 06:38:39;;;;;;;;;;;;;;;22.53;42.78;101933.06;4133945;28;19960;-71
2023/06/27 06:40:42;;;;;;;;;;;;;;;22.53;42.72;101932.19;4133903;28;19933;-71
2023/06/27 06:42:43;;;;;;;;;;;;;;;22.54;42.87;101931.22;4133187;28;19925;-72
2023/06/27 06:44:47;;;;;;;;;;;;;;;22.44;42.80;101920.25;4133170;28;19926;-72
2023/06/27 06:46:52;;;;;;;;;;;;;;;22.53;42.89;101935.75;4133607;28;20020;-71
2023/06/27 06:48:53;;;;;;;;;;;;;;;22.54;42.89;101937.47;4133777;28;19933;-71
2023/06/27 06:50:55;;;;;;;;;;;;;;;22.55;42.97;101939.16;4133852;28;20304;-71
2023/06/27 06:52:56;;;;;;;;;;;;;;;22.55;43.13;101931.09;4131798;28;19926;-71
2023/06/27 06:54:58;;;;;;;;;;;;;;;22.55;43.02;101936.47;4133649;28;19925;-71
2023/06/27 06:57:00;;;;;;;;;;;;;;;22.56;42.86;101935.50;4133259;28;20013;-72
2023/06/27 06:59:02;;;;;;;;;;;;;;;22.57;42.81;101939.06;4133729;28;19934;-71
2023/06/27 07:01:04;;;;;;;;;;;;;;;22.57;43.21;101939.06;4133427;28;19990;-72
2023/06/27 07:03:08;;;;;;;;;;;;;;;22.56;43.06;101940.88;4132640;28;20394;-71
2023/06/27 07:05:11;;;;;;;;;;;;;;;22.58;43.32;101940.78;4133634;28;19925;-72
2023/06/27 07:07:13;;;;;;;;;;;;;;;22.58;43.08;101944.31;4133817;28;20298;-71
2023/06/27 07:09:15;;;;;;;;;;;;;;;22.59;43.28;101939.81;4132475;28;19937;-71
2023/06/27 07:11:17;;;;;;;;;;;;;;;22.60;43.18;101937.03;4133129;28;19926;-72
2023/06/27 07:13:18;;;;;;;;;;;;;;;22.62;43.28;101934.25;4132727;28;19926;-71
2023/06/27 07:15:22;;;;;;;;;;;;;;;22.64;42.94;101937.69;4133394;28;20000;-71
2023/06/27 07:17:23;;;;;;;;;;;;;;;22.65;43.07;101934.91;4133499;28;20358;-71
2023/06/27 07:19:25;;;;;;;;;;;;;;;22.68;42.94;101946.41;4133184;28;19930;-72
2023/06/27 07:21:26;;;;;;;;;;;;;;;22.68;43.23;101939.19;4133533;28;20268;-71
2023/06/27 07:23:28;;;;;;;;;;;;;;;22.70;42.99;101948.00;4132307;28;20340;-71
2023/06/27 07:25:30;;;;;;;;;;;;;;;22.71;42.65;101947.06;4132997;28;19961;-71
2023/06/27 07:27:31;;;;;;;;;;;;;;;22.72;43.09;101948.75;4133029;28;19938;-71
2023/06/27 07:29:33;;;;;;;;;;;;;;;22.73;42.83;101947.78;4133394;28;19949;-71
2023/06/27 07:31:35;;;;;;;;;;;;;;;22.75;43.03;101947.69;4133049;28;20506;-71
2023/06/27 07:33:36;;;;;;;;;;;;;;;22.76;42.86;101944.91;4132238;28;20301;-71
2023/06/27 07:35:38;;;;;;;;;;;;;;;22.78;43.08;101944.78;4130633;28;20075;-72
2023/06/27 07:37:39;;;;;;;;;;;;;;;22.79;42.74;101947.38;4116774;28;20279;-65
2023/06/27 07:39:41;;;;;;;;;;;;;;;22.83;43.89;101950.69;4120748;28;19926;-67
2023/06/27 07:41:43;;;;;;;;;;;;;;;22.90;43.71;101945.78;4126621;28;20310;-68
2023/06/27 07:43:45;;;;;;;;;;;;;;;22.96;43.53;101954.25;4123356;28;20307;-71
2023/06/27 07:45:46;;;;;;;;;;;;;;;23.03;43.26;101943.97;4124055;28;20061;-61
2023/06/27 07:47:48;;;;;;;;;;;;;;;23.08;43.44;101943.66;4124071;28;20403;-65
2023/06/27 07:49:49;;;;;;;;;;;;;;;23.03;42.84;101946.66;4129435;28;19973;-69
2023/06/27 07:51:51;;;;;;;;;;;;;;;22.98;43.09;101946.13;4132351;28;19926;-69
2023/06/27 07:53:54;;;;;;;;;;;;;;;22.95;42.85;101947.19;4131259;28;19968;-69
2023/06/27 07:55:56;;;;;;;;;;;;;;;22.96;42.99;101948.03;4132380;28;20413;-69
2023/06/27 07:57:57;;;;;;;;;;;;;;;22.96;42.86;101950.72;4132177;28;19930;-69
2023/06/27 07:59:59;;;;;;;;;;;;;;;22.94;42.79;101942.78;4132718;28;19957;-69
2023/06/27 08:02:01;;;;;;;;;;;;;;;22.94;42.60;101945.47;4132450;28;19932;-68
2023/06/27 08:04:02;;;;;;;;;;;;;;;22.95;42.73;101943.63;4131453;28;19933;-68
2023/06/27 08:06:04;;;;;;;;;;;;;;;22.95;43.01;101947.19;4132932;28;19952;-68
2023/06/27 08:08:06;;;;;;;;;;;;;;;22.96;42.57;101948.03;4132574;28;19925;-69
2023/06/27 08:10:07;;;;;;;;;;;;;;;22.97;42.54;101944.41;4132291;28;19930;-68
2023/06/27 08:12:10;;;;;;;;;;;;;;;22.97;42.86;101944.41;4132252;28;20356;-69
2023/06/27 08:14:11;;;;;;;;;;;;;;;22.97;42.59;101936.34;4131554;28;19926;-68
2023/06/27 08:16:13;;;;;;;;;;;;;;;22.97;42.68;101937.19;4132393;28;19926;-68
2023/06/27 08:18:19;;;;;;;;;;;;;;;22.99;42.66;101937.13;4132218;28;19936;-69
2023/06/27 08:20:21;;;;;;;;;;;;;;;22.98;42.77;101933.56;4132313;28;19926;-69
2023/06/27 08:22:23;;;;;;;;;;;;;;;23.00;42.77;101935.28;4131368;28;19925;-69
2023/06/27 08:24:25;;;;;;;;;;;;;;;23.00;42.84;101936.13;4131089;28;19926;-68
2023/06/27 08:26:27;;;;;;;;;;;;;;;23.00;42.90;101930.75;4132114;28;19981;-68
2023/06/27 08:28:33;;;;;;;;;;;;;;;23.01;42.55;101931.63;4132305;28;19925;-68
2023/06/27 08:30:35;;;;;;;;;;;;;;;23.01;42.92;101932.47;4132208;28;19926;-68
2023/06/27 08:32:36;;;;;;;;;;;;;;;23.03;42.89;101935.09;4132185;28;20413;-69
2023/06/27 08:34:39;;;;;;;;;;;;;;;23.04;42.90;101926.03;4131116;28;19938;-68
2023/06/27 08:36:41;;;;;;;;;;;;;;;23.04;42.43;101926.03;4132008;28;19938;-68
2023/06/27 08:38:44;;;;;;;;;;;;;;;23.05;42.52;101914.34;4131660;28;19991;-68
2023/06/27 08:40:46;;;;;;;;;;;;;;;23.05;42.79;101912.53;4131720;28;19926;-67
2023/06/27 08:42:48;;;;;;;;;;;;;;;23.07;42.64;101923.16;4132146;28;20451;-69
2023/06/27 08:44:49;;;;;;;;;;;;;;;23.07;42.73;101915.94;4131156;28;19938;-69
2023/06/27 08:46:51;;;;;;;;;;;;;;;23.09;42.75;101923.91;4131690;28;20346;-69
2023/06/27 08:48:56;;;;;;;;;;;;;;;23.09;42.46;101915.88;4131319;28;19926;-68
2023/06/27 08:50:59;;;;;;;;;;;;;;;23.10;42.61;101913.06;4132021;28;19926;-68
2023/06/27 08:53:03;;;;;;;;;;;;;;;23.12;42.77;101915.63;4131741;28;20280;-69
2023/06/27 08:55:06;;;;;;;;;;;;;;;23.13;42.60;101915.53;4131422;28;20442;-68
2023/06/27 08:57:08;;;;;;;;;;;;;;;23.13;42.45;101914.69;4131714;28;19930;-68
2023/06/27 08:59:12;;;;;;;;;;;;;;;23.13;42.48;101912.00;4131744;28;19933;-68
2023/06/27 09:01:14;;;;;;;;;;;;;;;23.14;42.27;101914.56;4131691;28;19957;-68
2023/06/27 09:03:16;;;;;;;;;;;;;;;23.15;42.14;101907.38;4130920;28;19932;-69
2023/06/27 09:05:17;;;;;;;;;;;;;;;23.16;42.56;101908.22;4131638;28;19926;-69
2023/06/27 09:07:19;;;;;;;;;;;;;;;23.18;42.38;101903.66;4131281;28;20386;-69
2023/06/27 09:09:22;;;;;;;;;;;;;;;23.19;42.48;101897.31;4131737;28;19926;-68
2023/06/27 09:11:24;;;;;;;;;;;;;;;23.20;42.45;101902.56;4131706;28;20343;-68
2023/06/27 09:13:26;;;;;;;;;;;;;;;23.22;42.48;101895.28;4126916;28;20351;-68
2023/06/27 09:15:27;;;;;;;;;;;;;;;23.28;42.94;101892.16;4124347;28;19933;-70
2023/06/27 09:17:29;;;;;;;;;;;;;;;23.27;42.42;101876.19;4121920;28;19965;-64
2023/06/27 09:19:32;;;;;;;;;;;;;;;23.44;42.56;101889.22;4123208;28;19965;-66
2023/06/27 09:21:35;;;;;;;;;;;;;;;23.47;42.56;101882.78;4122934;28;19930;-66
2023/06/27 09:23:36;;;;;;;;;;;;;;;23.43;43.35;101879.47;4121957;28;19933;-67
2023/06/27 09:25:38;;;;;;;;;;;;;;;23.48;42.87;101873.75;4123511;28;20512;-65
2023/06/27 09:27:40;;;;;;;;;;;;;;;23.53;43.86;101874.28;4122181;28;20387;-68
2023/06/27 09:29:43;;;;;;;;;;;;;;;23.60;43.18;101866.66;4122694;28;19926;-69
2023/06/27 09:31:44;;;;;;;;;;;;;;;23.65;42.51;101867.16;4121482;28;20401;-64
2023/06/27 09:33:48;;;;;;;;;;;;;;;23.67;42.16;101872.41;4122200;28;19973;-65
2023/06/27 09:35:51;;;;;;;;;;;;;;;23.72;42.01;101864.88;4122739;28;19933;-64
2023/06/27 09:38:08;;;;;;;;;;;;;;;23.76;41.96;101880.66;4122805;28;20299;-64
2023/06/27 09:40:17;;;;;;;;;;;;;;;23.83;41.74;101869.47;4123761;28;19930;-65
2023/06/27 09:42:19;;;;;;;;;;;;;;;23.86;41.64;101866.56;4125277;28;19930;-69
2023/06/27 09:44:25;;;;;;;;;;;;;;;23.87;41.54;101858.38;4121815;28;19978;-68
2023/06/27 09:46:27;;;;;;;;;;;;;;;23.92;40.99;101858.03;4122791;28;19933;-71
2023/06/27 09:48:31;;;;;;;;;;;;;;;23.96;41.52;101853.34;4123493;28;20427;-67
2023/06/27 09:50:32;;;;;;;;;;;;;;;23.99;41.19;101845.91;4122517;28;19961;-65
2023/06/27 09:52:34;;;;;;;;;;;;;;;24.02;41.03;101851.06;4122862;28;19969;-70
2023/06/27 09:54:41;;;;;;;;;;;;;;;24.10;40.85;101850.47;4121721;28;19933;-64
2023/06/27 09:56:43;;;;;;;;;;;;;;;24.14;40.99;101851.94;4120455;28;19934;-67
2023/06/27 09:58:45;;;;;;;;;;;;;;;24.16;41.00;101858.06;4122538;28;19926;-66
2023/06/27 10:00:46;;;;;;;;;;;;;;;24.18;41.07;101852.56;4125198;28;19977;-64
2023/06/27 10:02:51;;;;;;;;;;;;;;;24.16;40.59;101852.69;4124922;28;19932;-70
2023/06/27 10:04:53;;;;;;;;;;;;;;;24.19;40.61;101849.78;4123155;28;20022;-70
2023/06/27 10:06:55;;;;;;;;;;;;;;;24.19;40.56;101843.53;4128620;28;19938;-70
2023/06/27 10:08:56;;;;;;;;;;;;;;;24.22;40.32;101848.69;4129372;28;20043;-65
2023/06/27 10:10:58;;;;;;;;;;;;;;;24.20;40.43;101846.09;4126310;28;19936;-71
2023/06/27 10:13:00;;;;;;;;;;;;;;;24.23;40.25;101853.94;4126318;28;20310;-71
2023/06/27 10:15:02;;;;;;;;;;;;;;;24.21;39.95;101853.19;4129561;28;19985;-73
2023/06/27 10:17:04;;;;;;;;;;;;;;;24.20;40.18;101848.78;4124388;28;19933;-73
2023/06/27 10:19:09;;;;;;;;;;;;;;;24.22;39.91;101854.06;4126438;28;19937;-73
2023/06/27 10:21:11;;;;;;;;;;;;;;;24.28;39.74;101855.41;4134328;28;19932;-73
2023/06/27 10:23:13;;;;;;;;;;;;;;;24.23;39.98;101839.66;4132521;28;19994;-71
2023/06/27 10:25:16;;;;;;;;;;;;;;;24.27;39.82;101842.97;4130850;28;19959;-72
2023/06/27 10:27:18;;;;;;;;;;;;;;;24.31;39.48;101837.22;4128187;28;19933;-72